sensor_id;sensor_type;location;lat;lon;timestamp;P1;P2;P0
44871;PMS7003;30602;51.060;17.226;2022-08-25T00:02:09;43;35;24
44871;PMS7003;30602;51.060;17.226;2022-08-25T00:05:45;43;37;23
44871;PMS7003;30602;51.060;17.226;2022-08-25T00:08:57;43;35;24
44871;PMS7003;30602;51.060;17.226;2022-08-25T00:12:12;42;35;24
44871;PMS7003;30602;51.060;17.226;2022-08-25T00:15:37;43;37;25
44871;PMS7003;30602;51.060;17.226;2022-08-25T00:19:10;43;36;24
44871;PMS7003;30602;51.060;17.226;2022-08-25T00:23:02;41;34;24
44871;PMS7003;30602;51.060;17.226;2022-08-25T00:26:24;38;34;24
44871;PMS7003;30602;51.060;17.226;2022-08-25T00:29:49;47;38;25
44871;PMS7003;30602;51.060;17.226;2022-08-25T00:33:23;50;42;28
44871;PMS7003;30602;51.060;17.226;2022-08-25T00:37:07;43;37;25
44871;PMS7003;30602;51.060;17.226;2022-08-25T00:40:41;38;32;23
44871;PMS7003;30602;51.060;17.226;2022-08-25T00:44:23;39;33;23
44871;PMS7003;30602;51.060;17.226;2022-08-25T00:48:41;40;35;23
44871;PMS7003;30602;51.060;17.226;2022-08-25T00:52:17;39;35;24
44871;PMS7003;30602;51.060;17.226;2022-08-25T00:55:40;43;35;23
44871;PMS7003;30602;51.060;17.226;2022-08-25T00:58:51;44;36;24
44871;PMS7003;30602;51.060;17.226;2022-08-25T01:02:20;38;33;24
44871;PMS7003;30602;51.060;17.226;2022-08-25T01:05:53;41;35;24
44871;PMS7003;30602;51.060;17.226;2022-08-25T01:09:26;42;35;24
44871;PMS7003;30602;51.060;17.226;2022-08-25T01:12:37;38;32;23
44871;PMS7003;30602;51.060;17.226;2022-08-25T01:16:47;40;35;23
44871;PMS7003;30602;51.060;17.226;2022-08-25T01:20:34;43;37;25
44871;PMS7003;30602;51.060;17.226;2022-08-25T01:23:47;42;34;24
44871;PMS7003;30602;51.060;17.226;2022-08-25T01:27:12;43;37;26
44871;PMS7003;30602;51.060;17.226;2022-08-25T01:30:22;40;34;23
44871;PMS7003;30602;51.060;17.226;2022-08-25T01:33:48;45;35;23
44871;PMS7003;30602;51.060;17.226;2022-08-25T01:37:21;37;33;23
44871;PMS7003;30602;51.060;17.226;2022-08-25T01:41:06;42;37;25
44871;PMS7003;30602;51.060;17.226;2022-08-25T01:44:26;43;33;24
44871;PMS7003;30602;51.060;17.226;2022-08-25T01:48:32;40;34;24
44871;PMS7003;30602;51.060;17.226;2022-08-25T01:55:40;39;34;22
44871;PMS7003;30602;51.060;17.226;2022-08-25T02:02:52;36;33;23
44871;PMS7003;30602;51.060;17.226;2022-08-25T02:06:05;41;36;24
44871;PMS7003;30602;51.060;17.226;2022-08-25T02:09:46;43;35;25
44871;PMS7003;30602;51.060;17.226;2022-08-25T02:13:02;43;37;24
44871;PMS7003;30602;51.060;17.226;2022-08-25T02:16:40;43;36;23
44871;PMS7003;30602;51.060;17.226;2022-08-25T02:20:27;44;37;25
44871;PMS7003;30602;51.060;17.226;2022-08-25T02:23:49;49;39;27
44871;PMS7003;30602;51.060;17.226;2022-08-25T02:30:49;49;41;26
44871;PMS7003;30602;51.060;17.226;2022-08-25T02:38:49;43;37;23
44871;PMS7003;30602;51.060;17.226;2022-08-25T02:42:21;44;37;24
44871;PMS7003;30602;51.060;17.226;2022-08-25T02:45:52;44;33;20
44871;PMS7003;30602;51.060;17.226;2022-08-25T02:49:06;37;32;23
44871;PMS7003;30602;51.060;17.226;2022-08-25T02:52:33;41;35;23
44871;PMS7003;30602;51.060;17.226;2022-08-25T02:55:48;39;34;24
44871;PMS7003;30602;51.060;17.226;2022-08-25T02:59:19;40;35;23
44871;PMS7003;30602;51.060;17.226;2022-08-25T03:02:49;39;34;23
44871;PMS7003;30602;51.060;17.226;2022-08-25T03:06:00;36;33;24
44871;PMS7003;30602;51.060;17.226;2022-08-25T03:09:34;42;36;22
44871;PMS7003;30602;51.060;17.226;2022-08-25T03:12:57;35;32;21
44871;PMS7003;30602;51.060;17.226;2022-08-25T03:16:23;44;37;24
44871;PMS7003;30602;51.060;17.226;2022-08-25T03:19:51;40;35;24
44871;PMS7003;30602;51.060;17.226;2022-08-25T03:23:47;39;35;24
44871;PMS7003;30602;51.060;17.226;2022-08-25T03:27:18;40;35;24
44871;PMS7003;30602;51.060;17.226;2022-08-25T03:30:44;40;33;23
44871;PMS7003;30602;51.060;17.226;2022-08-25T03:34:07;41;35;23
44871;PMS7003;30602;51.060;17.226;2022-08-25T03:37:17;40;35;24
44871;PMS7003;30602;51.060;17.226;2022-08-25T03:40:50;44;36;25
44871;PMS7003;30602;51.060;17.226;2022-08-25T03:44:38;42;35;24
44871;PMS7003;30602;51.060;17.226;2022-08-25T03:47:48;37;34;24
44871;PMS7003;30602;51.060;17.226;2022-08-25T03:51:35;37;32;23
44871;PMS7003;30602;51.060;17.226;2022-08-25T03:54:50;35;32;23
44871;PMS7003;30602;51.060;17.226;2022-08-25T03:57:58;43;36;24
44871;PMS7003;30602;51.060;17.226;2022-08-25T04:01:54;44;35;24
44871;PMS7003;30602;51.060;17.226;2022-08-25T04:05:19;41;35;22
44871;PMS7003;30602;51.060;17.226;2022-08-25T04:09:02;48;36;24
44871;PMS7003;30602;51.060;17.226;2022-08-25T04:12:54;40;34;25
44871;PMS7003;30602;51.060;17.226;2022-08-25T04:16:15;39;35;25
44871;PMS7003;30602;51.060;17.226;2022-08-25T04:20:20;46;37;25
44871;PMS7003;30602;51.060;17.226;2022-08-25T04:23:35;46;38;25
44871;PMS7003;30602;51.060;17.226;2022-08-25T04:26:49;46;38;25
44871;PMS7003;30602;51.060;17.226;2022-08-25T04:30:00;45;38;25
44871;PMS7003;30602;51.060;17.226;2022-08-25T04:33:36;45;37;25
44871;PMS7003;30602;51.060;17.226;2022-08-25T04:37:44;41;34;25
44871;PMS7003;30602;51.060;17.226;2022-08-25T04:41:13;39;35;24
44871;PMS7003;30602;51.060;17.226;2022-08-25T04:48:25;44;39;26
44871;PMS7003;30602;51.060;17.226;2022-08-25T04:51:56;44;37;25
44871;PMS7003;30602;51.060;17.226;2022-08-25T05:03:17;43;37;25
44871;PMS7003;30602;51.060;17.226;2022-08-25T05:07:32;43;36;25
44871;PMS7003;30602;51.060;17.226;2022-08-25T05:11:37;44;37;26
44871;PMS7003;30602;51.060;17.226;2022-08-25T05:15:55;48;39;26
44871;PMS7003;30602;51.060;17.226;2022-08-25T05:19:20;47;38;26
44871;PMS7003;30602;51.060;17.226;2022-08-25T05:23:22;41;36;25
44871;PMS7003;30602;51.060;17.226;2022-08-25T05:28:51;45;36;24
44871;PMS7003;30602;51.060;17.226;2022-08-25T05:32:38;43;36;25
44871;PMS7003;30602;51.060;17.226;2022-08-25T05:35:52;37;33;23
44871;PMS7003;30602;51.060;17.226;2022-08-25T05:39:35;43;36;26
44871;PMS7003;30602;51.060;17.226;2022-08-25T05:42:48;44;37;25
44871;PMS7003;30602;51.060;17.226;2022-08-25T05:46:28;37;34;24
44871;PMS7003;30602;51.060;17.226;2022-08-25T05:50:03;48;38;26
44871;PMS7003;30602;51.060;17.226;2022-08-25T05:53:44;43;37;26
44871;PMS7003;30602;51.060;17.226;2022-08-25T05:57:31;40;35;24
44871;PMS7003;30602;51.060;17.226;2022-08-25T06:00:49;45;37;26
44871;PMS7003;30602;51.060;17.226;2022-08-25T06:04:29;45;38;26
44871;PMS7003;30602;51.060;17.226;2022-08-25T06:08:03;43;35;24
44871;PMS7003;30602;51.060;17.226;2022-08-25T06:11:53;44;37;25
44871;PMS7003;30602;51.060;17.226;2022-08-25T06:15:38;42;36;24
44871;PMS7003;30602;51.060;17.226;2022-08-25T06:19:26;43;36;24
44871;PMS7003;30602;51.060;17.226;2022-08-25T06:22:57;42;36;25
44871;PMS7003;30602;51.060;17.226;2022-08-25T06:26:11;45;38;25
44871;PMS7003;30602;51.060;17.226;2022-08-25T06:29:22;42;36;25
44871;PMS7003;30602;51.060;17.226;2022-08-25T06:32:38;43;37;24
44871;PMS7003;30602;51.060;17.226;2022-08-25T06:36:42;43;36;26
44871;PMS7003;30602;51.060;17.226;2022-08-25T06:40:23;48;40;25
44871;PMS7003;30602;51.060;17.226;2022-08-25T06:43:48;40;36;25
44871;PMS7003;30602;51.060;17.226;2022-08-25T06:46:59;44;37;25
44871;PMS7003;30602;51.060;17.226;2022-08-25T06:50:59;44;39;26
44871;PMS7003;30602;51.060;17.226;2022-08-25T06:55:11;43;37;25
44871;PMS7003;30602;51.060;17.226;2022-08-25T06:58:42;42;35;24
44871;PMS7003;30602;51.060;17.226;2022-08-25T07:01:58;44;35;25
44871;PMS7003;30602;51.060;17.226;2022-08-25T07:05:09;41;33;24
44871;PMS7003;30602;51.060;17.226;2022-08-25T07:08:34;43;37;25
44871;PMS7003;30602;51.060;17.226;2022-08-25T07:11:48;43;36;25
44871;PMS7003;30602;51.060;17.226;2022-08-25T07:15:14;44;38;25
44871;PMS7003;30602;51.060;17.226;2022-08-25T07:18:28;39;33;25
44871;PMS7003;30602;51.060;17.226;2022-08-25T07:22:23;41;35;24
44871;PMS7003;30602;51.060;17.226;2022-08-25T07:26:26;43;36;25
44871;PMS7003;30602;51.060;17.226;2022-08-25T07:30:20;43;36;25
44871;PMS7003;30602;51.060;17.226;2022-08-25T07:33:37;38;33;23
44871;PMS7003;30602;51.060;17.226;2022-08-25T07:37:26;41;34;24
44871;PMS7003;30602;51.060;17.226;2022-08-25T07:41:09;38;30;22
44871;PMS7003;30602;51.060;17.226;2022-08-25T07:44:55;37;33;24
44871;PMS7003;30602;51.060;17.226;2022-08-25T07:48:08;39;31;23
44871;PMS7003;30602;51.060;17.226;2022-08-25T07:51:24;38;33;23
44871;PMS7003;30602;51.060;17.226;2022-08-25T07:54:33;35;32;23
44871;PMS7003;30602;51.060;17.226;2022-08-25T07:57:47;35;30;21
44871;PMS7003;30602;51.060;17.226;2022-08-25T08:00:58;34;30;22
44871;PMS7003;30602;51.060;17.226;2022-08-25T08:04:05;32;30;23
44871;PMS7003;30602;51.060;17.226;2022-08-25T08:07:37;32;30;22
44871;PMS7003;30602;51.060;17.226;2022-08-25T08:11:03;33;30;22
44871;PMS7003;30602;51.060;17.226;2022-08-25T08:14:15;36;31;22
44871;PMS7003;30602;51.060;17.226;2022-08-25T08:17:27;32;30;22
44871;PMS7003;30602;51.060;17.226;2022-08-25T08:21:24;36;31;21
44871;PMS7003;30602;51.060;17.226;2022-08-25T08:24:36;28;27;20
44871;PMS7003;30602;51.060;17.226;2022-08-25T08:27:53;33;30;21
44871;PMS7003;30602;51.060;17.226;2022-08-25T08:31:08;25;25;19
44871;PMS7003;30602;51.060;17.226;2022-08-25T08:34:39;28;25;19
44871;PMS7003;30602;51.060;17.226;2022-08-25T08:45:49;21;21;15
44871;PMS7003;30602;51.060;17.226;2022-08-25T08:49:30;21;20;17
44871;PMS7003;30602;51.060;17.226;2022-08-25T08:56:05;21;18;14
44871;PMS7003;30602;51.060;17.226;2022-08-25T08:59:25;22;21;16
44871;PMS7003;30602;51.060;17.226;2022-08-25T09:02:42;20;19;15
44871;PMS7003;30602;51.060;17.226;2022-08-25T09:06:03;17;16;13
44871;PMS7003;30602;51.060;17.226;2022-08-25T09:09:55;19;14;12
44871;PMS7003;30602;51.060;17.226;2022-08-25T09:13:21;18;16;14
44871;PMS7003;30602;51.060;17.226;2022-08-25T09:17:04;14;13;11
44871;PMS7003;30602;51.060;17.226;2022-08-25T09:24:34;18;16;13
44871;PMS7003;30602;51.060;17.226;2022-08-25T09:28:07;17;12;10
44871;PMS7003;30602;51.060;17.226;2022-08-25T09:31:23;14;14;12
44871;PMS7003;30602;51.060;17.226;2022-08-25T09:34:36;15;13;10
44871;PMS7003;30602;51.060;17.226;2022-08-25T09:37:59;14;14;11
44871;PMS7003;30602;51.060;17.226;2022-08-25T09:41:17;14;14;12
44871;PMS7003;30602;51.060;17.226;2022-08-25T09:44:53;18;16;14
44871;PMS7003;30602;51.060;17.226;2022-08-25T09:48:25;15;13;11
44871;PMS7003;30602;51.060;17.226;2022-08-25T09:55:46;15;14;12
44871;PMS7003;30602;51.060;17.226;2022-08-25T09:59:37;15;13;11
44871;PMS7003;30602;51.060;17.226;2022-08-25T10:03:30;21;14;11
44871;PMS7003;30602;51.060;17.226;2022-08-25T10:06:43;12;11;10
44871;PMS7003;30602;51.060;17.226;2022-08-25T10:13:48;15;13;11
44871;PMS7003;30602;51.060;17.226;2022-08-25T10:20:43;15;13;11
44871;PMS7003;30602;51.060;17.226;2022-08-25T10:24:18;13;13;11
44871;PMS7003;30602;51.060;17.226;2022-08-25T10:35:40;12;10;10
44871;PMS7003;30602;51.060;17.226;2022-08-25T10:39:45;14;11;10
44871;PMS7003;30602;51.060;17.226;2022-08-25T11:05:41;15;12;11
44871;PMS7003;30602;51.060;17.226;2022-08-25T11:09:17;16;14;12
44871;PMS7003;30602;51.060;17.226;2022-08-25T11:12:33;11;11;10
44871;PMS7003;30602;51.060;17.226;2022-08-25T11:16:14;16;13;10
44871;PMS7003;30602;51.060;17.226;2022-08-25T11:20:23;15;13;11
44871;PMS7003;30602;51.060;17.226;2022-08-25T11:24:09;18;12;11
44871;PMS7003;30602;51.060;17.226;2022-08-25T11:27:45;14;13;11
44871;PMS7003;30602;51.060;17.226;2022-08-25T11:31:00;10;10;9
44871;PMS7003;30602;51.060;17.226;2022-08-25T11:34:35;14;11;10
44871;PMS7003;30602;51.060;17.226;2022-08-25T11:45:46;13;11;10
44871;PMS7003;30602;51.060;17.226;2022-08-25T11:57:06;11;11;9
44871;PMS7003;30602;51.060;17.226;2022-08-25T12:00:42;13;11;9
44871;PMS7003;30602;51.060;17.226;2022-08-25T12:26:55;13;10;9
44871;PMS7003;30602;51.060;17.226;2022-08-25T12:30:10;13;10;9
44871;PMS7003;30602;51.060;17.226;2022-08-25T12:37:10;16;11;9
44871;PMS7003;30602;51.060;17.226;2022-08-25T12:47:49;15;11;9
44871;PMS7003;30602;51.060;17.226;2022-08-25T12:51:16;14;9;8
44871;PMS7003;30602;51.060;17.226;2022-08-25T12:58:04;13;12;10
44871;PMS7003;30602;51.060;17.226;2022-08-25T13:18:51;14;13;10
44871;PMS7003;30602;51.060;17.226;2022-08-25T13:22:12;14;12;10
44871;PMS7003;30602;51.060;17.226;2022-08-25T13:25:59;15;13;9
44871;PMS7003;30602;51.060;17.226;2022-08-25T13:29:21;15;13;11
44871;PMS7003;30602;51.060;17.226;2022-08-25T13:32:34;13;11;10
44871;PMS7003;30602;51.060;17.226;2022-08-25T13:39:15;14;13;10
44871;PMS7003;30602;51.060;17.226;2022-08-25T13:42:58;12;12;9
44871;PMS7003;30602;51.060;17.226;2022-08-25T13:54:38;14;13;11
44871;PMS7003;30602;51.060;17.226;2022-08-25T13:57:48;15;13;11
44871;PMS7003;30602;51.060;17.226;2022-08-25T14:04:24;14;14;11
44871;PMS7003;30602;51.060;17.226;2022-08-25T14:08:06;12;12;10
44871;PMS7003;30602;51.060;17.226;2022-08-25T14:15:33;13;13;11
44871;PMS7003;30602;51.060;17.226;2022-08-25T14:19:12;15;12;10
44871;PMS7003;30602;51.060;17.226;2022-08-25T14:22:45;21;13;12
44871;PMS7003;30602;51.060;17.226;2022-08-25T14:25:54;15;14;12
44871;PMS7003;30602;51.060;17.226;2022-08-25T14:29:03;14;13;11
44871;PMS7003;30602;51.060;17.226;2022-08-25T14:32:43;17;15;12
44871;PMS7003;30602;51.060;17.226;2022-08-25T14:36:35;13;13;11
44871;PMS7003;30602;51.060;17.226;2022-08-25T14:39:46;21;14;12
44871;PMS7003;30602;51.060;17.226;2022-08-25T14:43:01;16;15;14
44871;PMS7003;30602;51.060;17.226;2022-08-25T14:46:50;16;13;11
44871;PMS7003;30602;51.060;17.226;2022-08-25T14:50:03;14;14;12
44871;PMS7003;30602;51.060;17.226;2022-08-25T14:53:24;16;14;12
44871;PMS7003;30602;51.060;17.226;2022-08-25T14:57:40;17;14;13
44871;PMS7003;30602;51.060;17.226;2022-08-25T15:00:52;17;14;12
44871;PMS7003;30602;51.060;17.226;2022-08-25T15:04:36;18;15;12
44871;PMS7003;30602;51.060;17.226;2022-08-25T15:07:49;17;15;12
44871;PMS7003;30602;51.060;17.226;2022-08-25T15:11:12;18;14;12
44871;PMS7003;30602;51.060;17.226;2022-08-25T15:14:23;15;14;12
44871;PMS7003;30602;51.060;17.226;2022-08-25T15:17:52;15;13;11
44871;PMS7003;30602;51.060;17.226;2022-08-25T15:21:03;16;14;12
44871;PMS7003;30602;51.060;17.226;2022-08-25T15:24:18;17;15;13
44871;PMS7003;30602;51.060;17.226;2022-08-25T15:27:57;15;14;12
44871;PMS7003;30602;51.060;17.226;2022-08-25T15:31:55;20;17;13
44871;PMS7003;30602;51.060;17.226;2022-08-25T15:35:18;15;13;12
44871;PMS7003;30602;51.060;17.226;2022-08-25T15:38:50;18;15;14
44871;PMS7003;30602;51.060;17.226;2022-08-25T15:46:21;17;16;13
44871;PMS7003;30602;51.060;17.226;2022-08-25T15:49:59;17;16;14
44871;PMS7003;30602;51.060;17.226;2022-08-25T15:53:12;19;17;14
44871;PMS7003;30602;51.060;17.226;2022-08-25T15:57:14;20;19;15
44871;PMS7003;30602;51.060;17.226;2022-08-25T16:00:55;21;17;15
44871;PMS7003;30602;51.060;17.226;2022-08-25T16:04:34;23;18;15
44871;PMS7003;30602;51.060;17.226;2022-08-25T16:07:44;20;17;15
44871;PMS7003;30602;51.060;17.226;2022-08-25T16:11:04;22;16;14
44871;PMS7003;30602;51.060;17.226;2022-08-25T16:14:29;18;15;13
44871;PMS7003;30602;51.060;17.226;2022-08-25T16:17:44;20;16;13
44871;PMS7003;30602;51.060;17.226;2022-08-25T16:20:52;19;16;14
44871;PMS7003;30602;51.060;17.226;2022-08-25T16:23:59;21;17;13
44871;PMS7003;30602;51.060;17.226;2022-08-25T16:27:21;18;17;14
44871;PMS7003;30602;51.060;17.226;2022-08-25T16:30:43;17;14;12
44871;PMS7003;30602;51.060;17.226;2022-08-25T16:34:17;19;14;12
44871;PMS7003;30602;51.060;17.226;2022-08-25T16:37:49;17;17;13
44871;PMS7003;30602;51.060;17.226;2022-08-25T16:40:58;16;15;13
44871;PMS7003;30602;51.060;17.226;2022-08-25T16:44:25;16;15;13
44871;PMS7003;30602;51.060;17.226;2022-08-25T16:48:23;15;14;12
44871;PMS7003;30602;51.060;17.226;2022-08-25T16:51:33;18;15;13
44871;PMS7003;30602;51.060;17.226;2022-08-25T16:54:57;17;15;14
44871;PMS7003;30602;51.060;17.226;2022-08-25T16:58:16;20;15;13
44871;PMS7003;30602;51.060;17.226;2022-08-25T17:01:35;16;16;13
44871;PMS7003;30602;51.060;17.226;2022-08-25T17:04:49;21;15;13
44871;PMS7003;30602;51.060;17.226;2022-08-25T17:08:00;15;15;12
44871;PMS7003;30602;51.060;17.226;2022-08-25T17:11:42;17;14;12
44871;PMS7003;30602;51.060;17.226;2022-08-25T17:15:04;15;14;12
44871;PMS7003;30602;51.060;17.226;2022-08-25T17:19:23;18;17;15
44871;PMS7003;30602;51.060;17.226;2022-08-25T17:23:15;19;16;13
44871;PMS7003;30602;51.060;17.226;2022-08-25T17:26:25;20;18;14
44871;PMS7003;30602;51.060;17.226;2022-08-25T17:30:21;14;14;12
44871;PMS7003;30602;51.060;17.226;2022-08-25T17:33:29;19;16;14
44871;PMS7003;30602;51.060;17.226;2022-08-25T17:36:37;19;15;13
44871;PMS7003;30602;51.060;17.226;2022-08-25T17:40:16;17;16;13
44871;PMS7003;30602;51.060;17.226;2022-08-25T17:43:29;18;16;13
44871;PMS7003;30602;51.060;17.226;2022-08-25T17:46:44;16;15;13
44871;PMS7003;30602;51.060;17.226;2022-08-25T17:50:33;18;16;14
44871;PMS7003;30602;51.060;17.226;2022-08-25T17:53:42;17;16;14
44871;PMS7003;30602;51.060;17.226;2022-08-25T17:57:08;19;17;14
44871;PMS7003;30602;51.060;17.226;2022-08-25T18:00:19;18;16;13
44871;PMS7003;30602;51.060;17.226;2022-08-25T18:03:36;18;16;14
44871;PMS7003;30602;51.060;17.226;2022-08-25T18:07:06;21;17;14
44871;PMS7003;30602;51.060;17.226;2022-08-25T18:10:15;16;15;13
44871;PMS7003;30602;51.060;17.226;2022-08-25T18:14:09;17;16;14
44871;PMS7003;30602;51.060;17.226;2022-08-25T18:17:42;19;18;15
44871;PMS7003;30602;51.060;17.226;2022-08-25T18:20:57;20;18;15
44871;PMS7003;30602;51.060;17.226;2022-08-25T18:24:34;21;21;17
44871;PMS7003;30602;51.060;17.226;2022-08-25T18:28:11;23;22;16
44871;PMS7003;30602;51.060;17.226;2022-08-25T18:31:18;21;19;16
44871;PMS7003;30602;51.060;17.226;2022-08-25T18:34:41;18;17;15
44871;PMS7003;30602;51.060;17.226;2022-08-25T18:37:47;22;20;15
44871;PMS7003;30602;51.060;17.226;2022-08-25T18:41:09;21;17;15
44871;PMS7003;30602;51.060;17.226;2022-08-25T18:44:39;28;19;15
44871;PMS7003;30602;51.060;17.226;2022-08-25T18:48:10;26;19;14
44871;PMS7003;30602;51.060;17.226;2022-08-25T18:51:20;21;20;16
44871;PMS7003;30602;51.060;17.226;2022-08-25T18:54:37;20;19;17
44871;PMS7003;30602;51.060;17.226;2022-08-25T18:58:04;22;18;14
44871;PMS7003;30602;51.060;17.226;2022-08-25T19:01:17;18;18;15
44871;PMS7003;30602;51.060;17.226;2022-08-25T19:04:58;23;18;15
44871;PMS7003;30602;51.060;17.226;2022-08-25T19:08:34;20;19;16
44871;PMS7003;30602;51.060;17.226;2022-08-25T19:12:10;21;20;16
44871;PMS7003;30602;51.060;17.226;2022-08-25T19:15:18;23;19;16
44871;PMS7003;30602;51.060;17.226;2022-08-25T19:18:33;30;23;17
44871;PMS7003;30602;51.060;17.226;2022-08-25T19:21:55;20;18;15
44871;PMS7003;30602;51.060;17.226;2022-08-25T19:25:23;25;23;19
44871;PMS7003;30602;51.060;17.226;2022-08-25T19:28:47;27;23;19
44871;PMS7003;30602;51.060;17.226;2022-08-25T19:31:58;24;21;18
44871;PMS7003;30602;51.060;17.226;2022-08-25T19:35:14;26;24;19
44871;PMS7003;30602;51.060;17.226;2022-08-25T19:39:00;23;22;18
44871;PMS7003;30602;51.060;17.226;2022-08-25T19:43:04;26;24;19
44871;PMS7003;30602;51.060;17.226;2022-08-25T19:46:38;25;20;17
44871;PMS7003;30602;51.060;17.226;2022-08-25T19:50:13;28;23;18
44871;PMS7003;30602;51.060;17.226;2022-08-25T19:53:30;24;22;19
44871;PMS7003;30602;51.060;17.226;2022-08-25T19:56:50;25;23;17
44871;PMS7003;30602;51.060;17.226;2022-08-25T20:00:27;24;22;17
44871;PMS7003;30602;51.060;17.226;2022-08-25T20:03:58;25;22;19
44871;PMS7003;30602;51.060;17.226;2022-08-25T20:07:25;25;22;18
44871;PMS7003;30602;51.060;17.226;2022-08-25T20:11:13;26;22;18
44871;PMS7003;30602;51.060;17.226;2022-08-25T20:14:46;24;22;19
44871;PMS7003;30602;51.060;17.226;2022-08-25T20:18:01;21;20;16
44871;PMS7003;30602;51.060;17.226;2022-08-25T20:21:58;26;23;19
44871;PMS7003;30602;51.060;17.226;2022-08-25T20:25:24;22;19;17
44871;PMS7003;30602;51.060;17.226;2022-08-25T20:29:20;24;21;17
44871;PMS7003;30602;51.060;17.226;2022-08-25T20:33:03;22;21;16
44871;PMS7003;30602;51.060;17.226;2022-08-25T20:37:02;27;22;19
44871;PMS7003;30602;51.060;17.226;2022-08-25T20:40:42;23;21;18
44871;PMS7003;30602;51.060;17.226;2022-08-25T20:44:02;25;24;17
44871;PMS7003;30602;51.060;17.226;2022-08-25T20:47:14;25;22;18
44871;PMS7003;30602;51.060;17.226;2022-08-25T20:50:52;25;23;19
44871;PMS7003;30602;51.060;17.226;2022-08-25T20:54:35;24;22;18
44871;PMS7003;30602;51.060;17.226;2022-08-25T20:58:01;24;23;19
44871;PMS7003;30602;51.060;17.226;2022-08-25T21:01:43;31;26;20
44871;PMS7003;30602;51.060;17.226;2022-08-25T21:05:16;25;25;18
44871;PMS7003;30602;51.060;17.226;2022-08-25T21:08:41;29;26;20
44871;PMS7003;30602;51.060;17.226;2022-08-25T21:12:17;23;22;18
44871;PMS7003;30602;51.060;17.226;2022-08-25T21:15:44;22;21;17
44871;PMS7003;30602;51.060;17.226;2022-08-25T21:18:59;21;20;17
44871;PMS7003;30602;51.060;17.226;2022-08-25T21:22:09;22;20;17
44871;PMS7003;30602;51.060;17.226;2022-08-25T21:25:38;21;20;16
44871;PMS7003;30602;51.060;17.226;2022-08-25T21:28:48;22;21;17
44871;PMS7003;30602;51.060;17.226;2022-08-25T21:32:02;23;22;18
44871;PMS7003;30602;51.060;17.226;2022-08-25T21:35:31;21;21;18
44871;PMS7003;30602;51.060;17.226;2022-08-25T21:38:44;22;21;18
44871;PMS7003;30602;51.060;17.226;2022-08-25T21:41:53;25;23;18
44871;PMS7003;30602;51.060;17.226;2022-08-25T21:45:04;25;23;17
44871;PMS7003;30602;51.060;17.226;2022-08-25T21:48:32;24;23;18
44871;PMS7003;30602;51.060;17.226;2022-08-25T21:52:14;29;26;21
44871;PMS7003;30602;51.060;17.226;2022-08-25T21:55:23;30;24;19
44871;PMS7003;30602;51.060;17.226;2022-08-25T21:58:53;25;21;17
44871;PMS7003;30602;51.060;17.226;2022-08-25T22:02:54;26;25;19
44871;PMS7003;30602;51.060;17.226;2022-08-25T22:07:20;27;25;18
44871;PMS7003;30602;51.060;17.226;2022-08-25T22:10:54;25;22;18
44871;PMS7003;30602;51.060;17.226;2022-08-25T22:14:19;28;26;19
44871;PMS7003;30602;51.060;17.226;2022-08-25T22:17:50;22;20;16
44871;PMS7003;30602;51.060;17.226;2022-08-25T22:21:24;25;23;18
44871;PMS7003;30602;51.060;17.226;2022-08-25T22:24:55;25;23;19
44871;PMS7003;30602;51.060;17.226;2022-08-25T22:28:40;27;25;20
44871;PMS7003;30602;51.060;17.226;2022-08-25T22:32:44;23;21;18
44871;PMS7003;30602;51.060;17.226;2022-08-25T22:35:53;29;27;20
44871;PMS7003;30602;51.060;17.226;2022-08-25T22:39:11;29;26;21
44871;PMS7003;30602;51.060;17.226;2022-08-25T22:43:05;34;27;20
44871;PMS7003;30602;51.060;17.226;2022-08-25T22:46:38;28;27;20
44871;PMS7003;30602;51.060;17.226;2022-08-25T22:50:34;31;27;21
44871;PMS7003;30602;51.060;17.226;2022-08-25T22:53:45;30;28;22
44871;PMS7003;30602;51.060;17.226;2022-08-25T22:57:28;29;27;20
44871;PMS7003;30602;51.060;17.226;2022-08-25T23:01:13;29;26;20
44871;PMS7003;30602;51.060;17.226;2022-08-25T23:04:44;28;26;21
44871;PMS7003;30602;51.060;17.226;2022-08-25T23:08:17;30;27;20
44871;PMS7003;30602;51.060;17.226;2022-08-25T23:11:48;22;21;17
44871;PMS7003;30602;51.060;17.226;2022-08-25T23:15:14;23;21;18
44871;PMS7003;30602;51.060;17.226;2022-08-25T23:18:45;20;19;16
44871;PMS7003;30602;51.060;17.226;2022-08-25T23:22:17;24;23;19
44871;PMS7003;30602;51.060;17.226;2022-08-25T23:25:51;25;24;19
44871;PMS7003;30602;51.060;17.226;2022-08-25T23:29:35;24;23;20
44871;PMS7003;30602;51.060;17.226;2022-08-25T23:33:00;23;21;18
44871;PMS7003;30602;51.060;17.226;2022-08-25T23:37:06;22;21;17
44871;PMS7003;30602;51.060;17.226;2022-08-25T23:40:46;23;22;17
44871;PMS7003;30602;51.060;17.226;2022-08-25T23:44:17;32;28;21
44871;PMS7003;30602;51.060;17.226;2022-08-25T23:47:32;26;23;19
44871;PMS7003;30602;51.060;17.226;2022-08-25T23:50:42;22;20;17
44871;PMS7003;30602;51.060;17.226;2022-08-25T23:54:49;23;19;17
44871;PMS7003;30602;51.060;17.226;2022-08-25T23:58:19;21;19;17
